sensor_id;sensor_type;location;lat;lon;timestamp;pressure;altitude;pressure_sealevel;temperature;humidity
78773;BME280;68111;44.728;11.290;2023-12-28T00:02:11;102648.41;;;16.14;49.23
78773;BME280;68111;44.728;11.290;2023-12-28T00:04:40;102657.25;;;16.12;49.49
78773;BME280;68111;44.728;11.290;2023-12-28T00:07:07;102659.06;;;16.13;49.48
78773;BME280;68111;44.728;11.290;2023-12-28T00:09:33;102659.94;;;16.12;49.57
78773;BME280;68111;44.728;11.290;2023-12-28T00:12:00;102664.38;;;16.11;49.45
78773;BME280;68111;44.728;11.290;2023-12-28T00:14:27;102668.81;;;16.11;49.66
78773;BME280;68111;44.728;11.290;2023-12-28T00:16:54;102656.34;;;16.10;49.48
78773;BME280;68111;44.728;11.290;2023-12-28T00:19:21;102667.94;;;16.10;49.59
78773;BME280;68111;44.728;11.290;2023-12-28T00:21:48;102663.47;;;16.09;49.60
78773;BME280;68111;44.728;11.290;2023-12-28T00:24:16;102664.34;;;16.08;49.56
78773;BME280;68111;44.728;11.290;2023-12-28T00:26:43;102653.66;;;16.08;49.51
78773;BME280;68111;44.728;11.290;2023-12-28T00:29:10;102660.78;;;16.08;49.52
78773;BME280;68111;44.728;11.290;2023-12-28T00:31:37;102651.88;;;16.07;49.70
78773;BME280;68111;44.728;11.290;2023-12-28T00:34:04;102650.09;;;16.08;49.56
78773;BME280;68111;44.728;11.290;2023-12-28T00:36:31;102656.31;;;16.07;49.65
78773;BME280;68111;44.728;11.290;2023-12-28T00:38:58;102657.25;;;16.09;49.61
78773;BME280;68111;44.728;11.290;2023-12-28T00:41:25;102668.78;;;16.08;49.49
78773;BME280;68111;44.728;11.290;2023-12-28T00:43:52;102663.47;;;16.09;49.54
78773;BME280;68111;44.728;11.290;2023-12-28T00:46:20;102668.81;;;16.11;49.67
78773;BME280;68111;44.728;11.290;2023-12-28T00:48:47;102662.59;;;16.12;49.44
78773;BME280;68111;44.728;11.290;2023-12-28T00:51:14;102662.59;;;16.12;49.36
78773;BME280;68111;44.728;11.290;2023-12-28T00:53:41;102661.72;;;16.13;49.46
78773;BME280;68111;44.728;11.290;2023-12-28T00:56:09;102660.81;;;16.12;49.21
78773;BME280;68111;44.728;11.290;2023-12-28T00:58:40;102663.50;;;16.12;49.22
78773;BME280;68111;44.728;11.290;2023-12-28T01:01:08;102668.84;;;16.14;49.21
78773;BME280;68111;44.728;11.290;2023-12-28T01:03:35;102669.75;;;16.14;49.18
78773;BME280;68111;44.728;11.290;2023-12-28T01:06:06;102664.38;;;16.13;49.01
78773;BME280;68111;44.728;11.290;2023-12-28T01:08:33;102664.44;;;16.17;49.07
78773;BME280;68111;44.728;11.290;2023-12-28T01:11:01;102663.53;;;16.15;48.88
78773;BME280;68111;44.728;11.290;2023-12-28T01:13:28;102667.94;;;16.12;49.00
78773;BME280;68111;44.728;11.290;2023-12-28T01:15:55;102667.91;;;16.09;49.16
78773;BME280;68111;44.728;11.290;2023-12-28T01:18:22;102667.88;;;16.07;49.09
78773;BME280;68111;44.728;11.290;2023-12-28T01:20:50;102667.84;;;16.04;49.16
78773;BME280;68111;44.728;11.290;2023-12-28T01:23:17;102674.09;;;16.05;49.11
78773;BME280;68111;44.728;11.290;2023-12-28T01:25:44;102669.63;;;16.04;49.15
78773;BME280;68111;44.728;11.290;2023-12-28T01:28:11;102672.31;;;16.04;49.11
78773;BME280;68111;44.728;11.290;2023-12-28T01:30:38;102673.19;;;16.04;48.88
78773;BME280;68111;44.728;11.290;2023-12-28T01:33:05;102668.75;;;16.05;49.00
78773;BME280;68111;44.728;11.290;2023-12-28T01:35:32;102676.75;;;16.05;49.05
78773;BME280;68111;44.728;11.290;2023-12-28T01:37:59;102672.31;;;16.04;48.81
78773;BME280;68111;44.728;11.290;2023-12-28T01:40:27;102665.19;;;16.03;49.13
78773;BME280;68111;44.728;11.290;2023-12-28T01:42:54;102672.31;;;16.04;48.89
78773;BME280;68111;44.728;11.290;2023-12-28T01:45:21;102667.84;;;16.03;49.16
78773;BME280;68111;44.728;11.290;2023-12-28T01:47:48;102674.06;;;16.02;48.97
78773;BME280;68111;44.728;11.290;2023-12-28T01:50:16;102673.16;;;16.01;48.97
78773;BME280;68111;44.728;11.290;2023-12-28T01:52:43;102670.47;;;15.99;48.98
78773;BME280;68111;44.728;11.290;2023-12-28T01:55:11;102668.69;;;15.98;49.01
78773;BME280;68111;44.728;11.290;2023-12-28T01:57:39;102669.56;;;15.97;49.08
78773;BME280;68111;44.728;11.290;2023-12-28T02:00:07;102666.91;;;15.97;49.19
78773;BME280;68111;44.728;11.290;2023-12-28T02:02:41;102665.13;;;15.96;49.17
78773;BME280;68111;44.728;11.290;2023-12-28T02:05:11;102670.44;;;15.96;49.17
78773;BME280;68111;44.728;11.290;2023-12-28T02:07:39;102665.13;;;15.96;49.02
78773;BME280;68111;44.728;11.290;2023-12-28T02:10:07;102660.66;;;15.95;48.85
78773;BME280;68111;44.728;11.290;2023-12-28T02:12:34;102670.44;;;15.96;49.13
78773;BME280;68111;44.728;11.290;2023-12-28T02:15:01;102668.69;;;15.97;48.97
78773;BME280;68111;44.728;11.290;2023-12-28T02:17:33;102661.59;;;15.99;48.87
78773;BME280;68111;44.728;11.290;2023-12-28T02:20:03;102661.56;;;15.97;49.28
78773;BME280;68111;44.728;11.290;2023-12-28T02:22:33;102674.03;;;15.98;48.92
78773;BME280;68111;44.728;11.290;2023-12-28T02:25:10;102670.47;;;15.98;49.04
78773;BME280;68111;44.728;11.290;2023-12-28T02:27:45;102666.91;;;15.97;48.80
78773;BME280;68111;44.728;11.290;2023-12-28T02:30:16;102664.22;;;15.96;48.79
78773;BME280;68111;44.728;11.290;2023-12-28T02:35:50;102658.00;;;15.95;48.93
78773;BME280;68111;44.728;11.290;2023-12-28T02:38:19;102658.00;;;15.95;48.73
78773;BME280;68111;44.728;11.290;2023-12-28T02:40:48;102660.66;;;15.94;48.89
78773;BME280;68111;44.728;11.290;2023-12-28T02:43:16;102655.31;;;15.94;48.78
78773;BME280;68111;44.728;11.290;2023-12-28T02:45:43;102652.63;;;15.92;48.85
78773;BME280;68111;44.728;11.290;2023-12-28T02:48:09;102650.84;;;15.91;48.84
78773;BME280;68111;44.728;11.290;2023-12-28T02:50:36;102649.03;;;15.90;48.95
78773;BME280;68111;44.728;11.290;2023-12-28T02:53:04;102655.25;;;15.89;48.97
78773;BME280;68111;44.728;11.290;2023-12-28T02:55:30;102649.03;;;15.89;48.93
78773;BME280;68111;44.728;11.290;2023-12-28T02:57:58;102645.47;;;15.88;48.91
78773;BME280;68111;44.728;11.290;2023-12-28T03:00:28;102643.69;;;15.87;48.79
78773;BME280;68111;44.728;11.290;2023-12-28T03:02:56;102635.66;;;15.86;48.80
78773;BME280;68111;44.728;11.290;2023-12-28T03:05:23;102628.53;;;15.83;48.66
78773;BME280;68111;44.728;11.290;2023-12-28T03:07:50;102631.16;;;15.80;48.68
78773;BME280;68111;44.728;11.290;2023-12-28T03:10:18;102626.69;;;15.78;48.71
78773;BME280;68111;44.728;11.290;2023-12-28T03:12:45;102627.56;;;15.75;48.76
78773;BME280;68111;44.728;11.290;2023-12-28T03:15:12;102633.78;;;15.76;48.59
78773;BME280;68111;44.728;11.290;2023-12-28T03:17:40;102627.53;;;15.74;48.61
78773;BME280;68111;44.728;11.290;2023-12-28T03:20:08;102623.97;;;15.73;48.59
78773;BME280;68111;44.728;11.290;2023-12-28T03:22:37;102631.06;;;15.71;48.56
78773;BME280;68111;44.728;11.290;2023-12-28T03:25:04;102619.47;;;15.69;48.57
78773;BME280;68111;44.728;11.290;2023-12-28T03:27:31;102624.81;;;15.67;48.34
78773;BME280;68111;44.728;11.290;2023-12-28T03:29:58;102629.25;;;15.67;48.16
78773;BME280;68111;44.728;11.290;2023-12-28T03:32:25;102620.31;;;15.65;48.01
78773;BME280;68111;44.728;11.290;2023-12-28T03:34:51;102619.41;;;15.63;47.77
78773;BME280;68111;44.728;11.290;2023-12-28T03:37:18;102620.28;;;15.62;47.80
78773;BME280;68111;44.728;11.290;2023-12-28T03:39:45;102609.56;;;15.59;47.91
78773;BME280;68111;44.728;11.290;2023-12-28T03:42:13;102614.91;;;15.59;47.66
78773;BME280;68111;44.728;11.290;2023-12-28T03:44:40;102611.25;;;15.55;47.88
78773;BME280;68111;44.728;11.290;2023-12-28T03:47:07;102610.34;;;15.53;47.83
78773;BME280;68111;44.728;11.290;2023-12-28T03:49:34;102606.78;;;15.51;47.61
78773;BME280;68111;44.728;11.290;2023-12-28T03:52:01;102614.75;;;15.50;47.52
78773;BME280;68111;44.728;11.290;2023-12-28T03:54:28;102610.28;;;15.47;47.49
78773;BME280;68111;44.728;11.290;2023-12-28T03:56:55;102605.81;;;15.45;47.77
78773;BME280;68111;44.728;11.290;2023-12-28T03:59:21;102607.56;;;15.43;47.51
78773;BME280;68111;44.728;11.290;2023-12-28T04:01:48;102610.22;;;15.41;47.57
78773;BME280;68111;44.728;11.290;2023-12-28T04:04:16;102606.63;;;15.37;47.25
78773;BME280;68111;44.728;11.290;2023-12-28T04:06:43;102612.81;;;15.36;47.38
78773;BME280;68111;44.728;11.290;2023-12-28T04:09:14;102609.25;;;15.34;47.10
78773;BME280;68111;44.728;11.290;2023-12-28T04:11:41;102611.88;;;15.31;47.31
78773;BME280;68111;44.728;11.290;2023-12-28T04:14:09;102616.28;;;15.29;47.18
78773;BME280;68111;44.728;11.290;2023-12-28T04:16:36;102613.59;;;15.26;46.98
78773;BME280;68111;44.728;11.290;2023-12-28T04:19:02;102607.34;;;15.24;47.03
78773;BME280;68111;44.728;11.290;2023-12-28T04:21:29;102601.97;;;15.21;46.92
78773;BME280;68111;44.728;11.290;2023-12-28T04:23:56;102601.97;;;15.21;46.90
78773;BME280;68111;44.728;11.290;2023-12-28T04:26:23;102610.84;;;15.20;46.88
78773;BME280;68111;44.728;11.290;2023-12-28T04:28:50;102604.59;;;15.18;46.62
78773;BME280;68111;44.728;11.290;2023-12-28T04:31:17;102609.91;;;15.17;46.87
78773;BME280;68111;44.728;11.290;2023-12-28T04:33:44;102616.09;;;15.14;46.71
78773;BME280;68111;44.728;11.290;2023-12-28T04:36:11;102609.88;;;15.14;46.78
78773;BME280;68111;44.728;11.290;2023-12-28T04:38:38;102615.19;;;15.14;46.72
78773;BME280;68111;44.728;11.290;2023-12-28T04:41:06;102616.06;;;15.13;46.46
78773;BME280;68111;44.728;11.290;2023-12-28T04:43:32;102616.06;;;15.11;46.53
78773;BME280;68111;44.728;11.290;2023-12-28T04:46:03;102614.25;;;15.10;46.56
78773;BME280;68111;44.728;11.290;2023-12-28T04:48:31;102612.47;;;15.09;46.55
78773;BME280;68111;44.728;11.290;2023-12-28T04:51:02;102615.13;;;15.08;46.47
78773;BME280;68111;44.728;11.290;2023-12-28T04:53:29;102612.44;;;15.06;46.27
78773;BME280;68111;44.728;11.290;2023-12-28T04:55:56;102616.88;;;15.05;46.39
78773;BME280;68111;44.728;11.290;2023-12-28T04:58:22;102621.31;;;15.05;46.56
78773;BME280;68111;44.728;11.290;2023-12-28T05:00:49;102626.63;;;15.05;46.57
78773;BME280;68111;44.728;11.290;2023-12-28T05:03:18;102627.53;;;15.05;46.52
78773;BME280;68111;44.728;11.290;2023-12-28T05:05:45;102636.41;;;15.06;46.47
78773;BME280;68111;44.728;11.290;2023-12-28T05:08:15;102627.53;;;15.05;46.18
78773;BME280;68111;44.728;11.290;2023-12-28T05:10:42;102628.41;;;15.04;46.23
78773;BME280;68111;44.728;11.290;2023-12-28T05:13:08;102621.25;;;15.02;45.95
78773;BME280;68111;44.728;11.290;2023-12-28T05:15:35;102622.13;;;15.01;46.05
78773;BME280;68111;44.728;11.290;2023-12-28T05:18:02;102621.22;;;14.99;46.14
78773;BME280;68111;44.728;11.290;2023-12-28T05:20:29;102623.84;;;14.96;45.98
78773;BME280;68111;44.728;11.290;2023-12-28T05:22:56;102629.13;;;14.94;46.02
78773;BME280;68111;44.728;11.290;2023-12-28T05:25:23;102635.31;;;14.92;45.99
78773;BME280;68111;44.728;11.290;2023-12-28T05:27:50;102626.38;;;14.88;46.15
78773;BME280;68111;44.728;11.290;2023-12-28T05:30:16;102621.91;;;14.86;46.02
78773;BME280;68111;44.728;11.290;2023-12-28T05:32:43;102632.53;;;14.83;45.63
78773;BME280;68111;44.728;11.290;2023-12-28T05:35:10;102628.06;;;14.82;45.90
78773;BME280;68111;44.728;11.290;2023-12-28T05:37:37;102631.59;;;14.81;46.12
78773;BME280;68111;44.728;11.290;2023-12-28T05:40:04;102630.69;;;14.79;45.94
78773;BME280;68111;44.728;11.290;2023-12-28T05:42:31;102633.34;;;14.79;45.60
78773;BME280;68111;44.728;11.290;2023-12-28T05:44:58;102636.88;;;14.78;45.64
78773;BME280;68111;44.728;11.290;2023-12-28T05:47:25;102627.13;;;14.78;45.65
78773;BME280;68111;44.728;11.290;2023-12-28T05:49:51;102636.88;;;14.78;45.59
78773;BME280;68111;44.728;11.290;2023-12-28T05:52:19;102628.91;;;14.78;45.61
78773;BME280;68111;44.728;11.290;2023-12-28T05:54:46;102620.03;;;14.77;45.49
78773;BME280;68111;44.728;11.290;2023-12-28T05:57:14;102624.44;;;14.77;45.66
78773;BME280;68111;44.728;11.290;2023-12-28T05:59:42;102626.16;;;14.73;45.45
78773;BME280;68111;44.728;11.290;2023-12-28T06:02:09;102628.84;;;14.73;45.53
78773;BME280;68111;44.728;11.290;2023-12-28T06:04:36;102631.50;;;14.75;45.43
78773;BME280;68111;44.728;11.290;2023-12-28T06:07:03;102619.03;;;14.70;45.29
78773;BME280;68111;44.728;11.290;2023-12-28T06:09:31;102626.09;;;14.68;45.45
78773;BME280;68111;44.728;11.290;2023-12-28T06:11:58;102629.59;;;14.66;45.22
78773;BME280;68111;44.728;11.290;2023-12-28T06:14:25;102629.59;;;14.64;45.18
78773;BME280;68111;44.728;11.290;2023-12-28T06:16:51;102629.59;;;14.64;45.16
78773;BME280;68111;44.728;11.290;2023-12-28T06:19:18;102622.47;;;14.63;45.37
78773;BME280;68111;44.728;11.290;2023-12-28T06:21:45;102621.56;;;14.63;45.15
78773;BME280;68111;44.728;11.290;2023-12-28T06:24:12;102617.09;;;14.60;45.16
78773;BME280;68111;44.728;11.290;2023-12-28T06:26:43;102614.41;;;14.59;45.30
78773;BME280;68111;44.728;11.290;2023-12-28T06:29:10;102618.91;;;14.63;45.23
78773;BME280;68111;44.728;11.290;2023-12-28T06:31:37;102614.44;;;14.60;45.27
78773;BME280;68111;44.728;11.290;2023-12-28T06:34:05;102621.47;;;14.57;45.18
78773;BME280;68111;44.728;11.290;2023-12-28T06:36:33;102621.44;;;14.54;45.11
78773;BME280;68111;44.728;11.290;2023-12-28T06:39:00;102633.84;;;14.53;45.01
78773;BME280;68111;44.728;11.290;2023-12-28T06:41:27;102624.06;;;14.52;45.13
78773;BME280;68111;44.728;11.290;2023-12-28T06:43:54;102629.41;;;14.52;44.91
78773;BME280;68111;44.728;11.290;2023-12-28T06:46:21;102645.31;;;14.49;44.90
78773;BME280;68111;44.728;11.290;2023-12-28T06:48:48;102645.25;;;14.46;44.79
78773;BME280;68111;44.728;11.290;2023-12-28T06:51:19;102651.44;;;14.44;44.96
78773;BME280;68111;44.728;11.290;2023-12-28T06:53:48;102649.66;;;14.44;44.97
78773;BME280;68111;44.728;11.290;2023-12-28T06:56:15;102651.41;;;14.42;44.98
78773;BME280;68111;44.728;11.290;2023-12-28T06:58:42;102654.06;;;14.42;44.90
78773;BME280;68111;44.728;11.290;2023-12-28T07:01:09;102648.75;;;14.42;44.93
78773;BME280;68111;44.728;11.290;2023-12-28T07:03:38;102654.91;;;14.41;44.82
78773;BME280;68111;44.728;11.290;2023-12-28T07:06:05;102653.03;;;14.35;44.44
78773;BME280;68111;44.728;11.290;2023-12-28T07:08:32;102664.91;;;14.07;44.33
78773;BME280;68111;44.728;11.290;2023-12-28T07:11:03;102665.16;;;13.73;44.67
78773;BME280;68111;44.728;11.290;2023-12-28T07:13:33;102673.38;;;13.41;44.82
78773;BME280;68111;44.728;11.290;2023-12-28T07:16:01;102673.75;;;13.19;45.36
78773;BME280;68111;44.728;11.290;2023-12-28T07:18:28;102670.72;;;13.04;45.48
78773;BME280;68111;44.728;11.290;2023-12-28T07:20:56;102668.69;;;12.94;46.01
78773;BME280;68111;44.728;11.290;2023-12-28T07:23:22;102663.22;;;12.86;46.11
78773;BME280;68111;44.728;11.290;2023-12-28T07:25:49;102662.97;;;12.75;46.24
78773;BME280;68111;44.728;11.290;2023-12-28T07:28:16;102670.72;;;12.68;46.36
78773;BME280;68111;44.728;11.290;2023-12-28T07:30:43;102680.31;;;12.61;46.34
78773;BME280;68111;44.728;11.290;2023-12-28T07:33:10;102673.06;;;12.54;46.62
78773;BME280;68111;44.728;11.290;2023-12-28T07:35:37;102683.50;;;12.48;46.66
78773;BME280;68111;44.728;11.290;2023-12-28T07:38:04;102684.28;;;12.44;46.90
78773;BME280;68111;44.728;11.290;2023-12-28T07:40:31;102684.19;;;12.39;46.72
78773;BME280;68111;44.728;11.290;2023-12-28T07:42:58;102684.94;;;12.35;46.86
78773;BME280;68111;44.728;11.290;2023-12-28T07:45:25;102690.19;;;12.32;47.14
78773;BME280;68111;44.728;11.290;2023-12-28T07:47:52;102698.94;;;12.30;47.06
78773;BME280;68111;44.728;11.290;2023-12-28T07:50:19;102699.84;;;12.30;47.21
78773;BME280;68111;44.728;11.290;2023-12-28T07:52:48;102704.25;;;12.30;47.11
78773;BME280;68111;44.728;11.290;2023-12-28T07:55:15;102702.47;;;12.29;47.17
78773;BME280;68111;44.728;11.290;2023-12-28T07:57:43;102707.75;;;12.29;47.24
78773;BME280;68111;44.728;11.290;2023-12-28T08:00:11;102709.59;;;12.31;47.32
78773;BME280;68111;44.728;11.290;2023-12-28T08:02:38;102712.22;;;12.30;47.13
78773;BME280;68111;44.728;11.290;2023-12-28T08:05:05;102715.81;;;12.32;47.37
78773;BME280;68111;44.728;11.290;2023-12-28T08:07:32;102716.66;;;12.31;47.11
78773;BME280;68111;44.728;11.290;2023-12-28T08:10:00;102714.94;;;12.33;47.28
78773;BME280;68111;44.728;11.290;2023-12-28T08:12:27;102714.09;;;12.34;47.10
78773;BME280;68111;44.728;11.290;2023-12-28T08:14:55;102719.41;;;12.34;47.15
78773;BME280;68111;44.728;11.290;2023-12-28T08:17:22;102726.50;;;12.35;47.36
78773;BME280;68111;44.728;11.290;2023-12-28T08:19:49;102718.63;;;12.38;47.30
78773;BME280;68111;44.728;11.290;2023-12-28T08:22:16;102713.38;;;12.41;47.29
78773;BME280;68111;44.728;11.290;2023-12-28T08:24:43;102712.53;;;12.42;47.35
78773;BME280;68111;44.728;11.290;2023-12-28T08:27:10;102707.22;;;12.42;47.57
78773;BME280;68111;44.728;11.290;2023-12-28T08:29:37;102709.06;;;12.44;47.54
78773;BME280;68111;44.728;11.290;2023-12-28T08:32:06;102709.97;;;12.45;47.72
78773;BME280;68111;44.728;11.290;2023-12-28T08:34:33;102714.44;;;12.47;47.43
78773;BME280;68111;44.728;11.290;2023-12-28T08:37:00;102710.13;;;12.51;47.50
78773;BME280;68111;44.728;11.290;2023-12-28T08:39:27;102711.06;;;12.53;47.50
78773;BME280;68111;44.728;11.290;2023-12-28T08:41:54;102719.00;;;12.53;47.77
78773;BME280;68111;44.728;11.290;2023-12-28T08:44:21;102718.19;;;12.56;47.97
78773;BME280;68111;44.728;11.290;2023-12-28T08:46:48;102725.38;;;12.60;47.80
78773;BME280;68111;44.728;11.290;2023-12-28T08:49:15;102726.47;;;12.68;48.04
78773;BME280;68111;44.728;11.290;2023-12-28T08:51:42;102729.31;;;12.75;48.10
78773;BME280;68111;44.728;11.290;2023-12-28T08:54:11;102730.38;;;12.83;48.26
78773;BME280;68111;44.728;11.290;2023-12-28T08:56:37;102733.16;;;12.88;48.12
78773;BME280;68111;44.728;11.290;2023-12-28T08:59:04;102731.53;;;12.95;48.42
78773;BME280;68111;44.728;11.290;2023-12-28T09:01:31;102730.88;;;13.02;48.29
78773;BME280;68111;44.728;11.290;2023-12-28T09:03:58;102738.97;;;13.08;48.18
78773;BME280;68111;44.728;11.290;2023-12-28T09:06:26;102734.66;;;13.13;48.45
78773;BME280;68111;44.728;11.290;2023-12-28T09:08:54;102726.88;;;13.19;48.46
78773;BME280;68111;44.728;11.290;2023-12-28T09:11:21;102727.88;;;13.24;48.44
78773;BME280;68111;44.728;11.290;2023-12-28T09:13:48;102729.78;;;13.30;48.50
78773;BME280;68111;44.728;11.290;2023-12-28T09:16:15;102728.13;;;13.35;48.57
78773;BME280;68111;44.728;11.290;2023-12-28T09:18:43;102725.53;;;13.38;48.87
78773;BME280;68111;44.728;11.290;2023-12-28T09:21:10;102729.16;;;13.41;48.78
78773;BME280;68111;44.728;11.290;2023-12-28T09:23:39;102725.72;;;13.47;48.74
78773;BME280;68111;44.728;11.290;2023-12-28T09:26:07;102727.59;;;13.51;48.97
78773;BME280;68111;44.728;11.290;2023-12-28T09:28:35;102729.44;;;13.55;49.01
78773;BME280;68111;44.728;11.290;2023-12-28T09:31:03;102733.06;;;13.59;49.11
78773;BME280;68111;44.728;11.290;2023-12-28T09:33:32;102716.31;;;13.63;49.02
78773;BME280;68111;44.728;11.290;2023-12-28T09:35:59;102714.59;;;13.65;48.91
78773;BME280;68111;44.728;11.290;2023-12-28T09:38:26;102713.75;;;13.67;49.20
78773;BME280;68111;44.728;11.290;2023-12-28T09:40:54;102712.94;;;13.70;49.31
78773;BME280;68111;44.728;11.290;2023-12-28T09:43:26;102720.03;;;13.71;49.42
78773;BME280;68111;44.728;11.290;2023-12-28T09:45:54;102719.28;;;13.76;49.12
78773;BME280;68111;44.728;11.290;2023-12-28T09:48:22;102718.50;;;13.82;49.61
78773;BME280;68111;44.728;11.290;2023-12-28T09:50:54;102709.75;;;13.88;49.50
78773;BME280;68111;44.728;11.290;2023-12-28T09:53:25;102716.94;;;13.93;49.41
78773;BME280;68111;44.728;11.290;2023-12-28T09:55:53;102715.28;;;13.98;49.37
78773;BME280;68111;44.728;11.290;2023-12-28T09:58:21;102701.22;;;14.05;49.63
78773;BME280;68111;44.728;11.290;2023-12-28T10:00:49;102704.00;;;14.12;49.40
78773;BME280;68111;44.728;11.290;2023-12-28T10:03:17;102701.47;;;14.18;49.59
78773;BME280;68111;44.728;11.290;2023-12-28T10:05:46;102698.84;;;14.21;49.26
78773;BME280;68111;44.728;11.290;2023-12-28T10:08:15;102699.84;;;14.26;49.27
78773;BME280;68111;44.728;11.290;2023-12-28T10:10:43;102690.22;;;14.32;49.60
78773;BME280;68111;44.728;11.290;2023-12-28T10:13:17;102680.59;;;14.39;49.52
78773;BME280;68111;44.728;11.290;2023-12-28T10:15:44;102676.28;;;14.44;49.52
78773;BME280;68111;44.728;11.290;2023-12-28T10:18:12;102676.38;;;14.50;49.47
78773;BME280;68111;44.728;11.290;2023-12-28T10:20:39;102680.91;;;14.56;49.59
78773;BME280;68111;44.728;11.290;2023-12-28T10:23:07;102670.38;;;14.63;49.41
78773;BME280;68111;44.728;11.290;2023-12-28T10:25:34;102670.47;;;14.69;49.57
78773;BME280;68111;44.728;11.290;2023-12-28T10:28:05;102670.56;;;14.76;49.73
78773;BME280;68111;44.728;11.290;2023-12-28T10:30:35;102668.03;;;14.83;49.60
78773;BME280;68111;44.728;11.290;2023-12-28T10:33:06;102673.44;;;14.89;49.90
78773;BME280;68111;44.728;11.290;2023-12-28T10:35:33;102676.25;;;14.98;49.47
78773;BME280;68111;44.728;11.290;2023-12-28T10:38:01;102669.22;;;15.03;49.56
78773;BME280;68111;44.728;11.290;2023-12-28T10:40:30;102671.16;;;15.15;49.50
78773;BME280;68111;44.728;11.290;2023-12-28T10:43:06;102666.00;;;15.27;49.53
78773;BME280;68111;44.728;11.290;2023-12-28T10:45:37;102660.88;;;15.43;49.42
78773;BME280;68111;44.728;11.290;2023-12-28T10:48:07;102661.91;;;15.54;49.39
78773;BME280;68111;44.728;11.290;2023-12-28T10:50:39;102655.88;;;15.64;49.20
78773;BME280;68111;44.728;11.290;2023-12-28T10:53:33;102647.16;;;15.80;49.10
78773;BME280;68111;44.728;11.290;2023-12-28T10:58:53;102645.59;;;16.00;49.25
78773;BME280;68111;44.728;11.290;2023-12-28T11:01:28;102652.91;;;16.23;48.93
78773;BME280;68111;44.728;11.290;2023-12-28T11:04:03;102648.63;;;16.40;48.79
78773;BME280;68111;44.728;11.290;2023-12-28T11:06:36;102640.78;;;16.61;48.46
78773;BME280;68111;44.728;11.290;2023-12-28T11:09:06;102635.63;;;16.83;48.25
78773;BME280;68111;44.728;11.290;2023-12-28T11:11:37;102637.56;;;17.05;47.82
78773;BME280;68111;44.728;11.290;2023-12-28T11:14:05;102627.84;;;17.22;47.59
78773;BME280;68111;44.728;11.290;2023-12-28T11:16:33;102621.69;;;17.36;47.19
78773;BME280;68111;44.728;11.290;2023-12-28T11:19:01;102623.50;;;17.43;47.08
78773;BME280;68111;44.728;11.290;2023-12-28T11:21:30;102624.38;;;17.40;47.10
78773;BME280;68111;44.728;11.290;2023-12-28T11:23:57;102615.47;;;17.46;47.07
78773;BME280;68111;44.728;11.290;2023-12-28T11:26:24;102613.72;;;17.54;46.90
78773;BME280;68111;44.728;11.290;2023-12-28T11:29:03;102608.38;;;17.57;46.78
78773;BME280;68111;44.728;11.290;2023-12-28T11:31:34;102601.31;;;17.67;46.80
78773;BME280;68111;44.728;11.290;2023-12-28T11:34:04;102590.59;;;17.67;46.53
78773;BME280;68111;44.728;11.290;2023-12-28T11:36:49;102595.03;;;17.62;46.55
78773;BME280;68111;44.728;11.290;2023-12-28T11:39:26;102594.13;;;17.56;46.50
78773;BME280;68111;44.728;11.290;2023-12-28T11:41:59;102590.53;;;17.51;46.69
78773;BME280;68111;44.728;11.290;2023-12-28T11:44:27;102590.53;;;17.50;46.45
78773;BME280;68111;44.728;11.290;2023-12-28T11:46:55;102580.72;;;17.47;46.57
78773;BME280;68111;44.728;11.290;2023-12-28T11:49:27;102582.50;;;17.47;46.77
78773;BME280;68111;44.728;11.290;2023-12-28T11:51:58;102578.94;;;17.51;46.74
78773;BME280;68111;44.728;11.290;2023-12-28T11:54:26;102565.59;;;17.55;46.79
78773;BME280;68111;44.728;11.290;2023-12-28T11:56:53;102562.03;;;17.66;46.71
78773;BME280;68111;44.728;11.290;2023-12-28T11:59:20;102562.97;;;17.75;46.46
78773;BME280;68111;44.728;11.290;2023-12-28T12:01:52;102554.97;;;17.84;46.27
78773;BME280;68111;44.728;11.290;2023-12-28T12:04:20;102550.50;;;17.96;46.11
78773;BME280;68111;44.728;11.290;2023-12-28T12:06:48;102555.88;;;18.06;45.90
78773;BME280;68111;44.728;11.290;2023-12-28T12:09:15;102551.41;;;18.10;45.73
78773;BME280;68111;44.728;11.290;2023-12-28T12:11:42;102545.16;;;17.99;45.87
78773;BME280;68111;44.728;11.290;2023-12-28T12:14:11;102544.28;;;17.89;45.86
78773;BME280;68111;44.728;11.290;2023-12-28T12:16:38;102542.47;;;17.92;46.24
78773;BME280;68111;44.728;11.290;2023-12-28T12:19:05;102542.50;;;18.02;45.88
78773;BME280;68111;44.728;11.290;2023-12-28T12:21:34;102541.59;;;18.03;45.84
78773;BME280;68111;44.728;11.290;2023-12-28T12:24:01;102530.88;;;17.98;45.97
78773;BME280;68111;44.728;11.290;2023-12-28T12:26:29;102526.44;;;17.92;45.83
78773;BME280;68111;44.728;11.290;2023-12-28T12:28:57;102527.31;;;17.88;45.81
78773;BME280;68111;44.728;11.290;2023-12-28T12:31:24;102518.41;;;17.80;45.84
78773;BME280;68111;44.728;11.290;2023-12-28T12:33:51;102525.53;;;17.75;46.09
78773;BME280;68111;44.728;11.290;2023-12-28T12:36:19;102521.97;;;17.73;45.98
78773;BME280;68111;44.728;11.290;2023-12-28T12:38:48;102515.72;;;17.70;46.33
78773;BME280;68111;44.728;11.290;2023-12-28T12:41:15;102515.72;;;17.68;46.15
78773;BME280;68111;44.728;11.290;2023-12-28T12:43:41;102513.03;;;17.68;46.27
78773;BME280;68111;44.728;11.290;2023-12-28T12:46:08;102522.84;;;17.68;46.12
78773;BME280;68111;44.728;11.290;2023-12-28T12:48:35;102516.56;;;17.64;46.15
78773;BME280;68111;44.728;11.290;2023-12-28T12:51:03;102517.50;;;17.66;46.19